createdAt,value
2024-02-05T00:00:06.769Z,99.99
2024-02-05T00:01:07.714Z,99.99
2024-02-05T00:02:08.135Z,99.99
2024-02-05T00:03:08.984Z,99.99
2024-02-05T00:04:09.903Z,99.99
2024-02-05T00:05:10.885Z,99.99
2024-02-05T00:06:11.277Z,99.99
2024-02-05T00:07:12.325Z,99.99
2024-02-05T00:08:12.900Z,99.99
2024-02-05T00:09:13.288Z,99.99
2024-02-05T00:10:13.881Z,99.99
2024-02-05T00:11:14.766Z,99.99
2024-02-05T00:12:15.596Z,99.99
2024-02-05T00:13:16.632Z,99.99
2024-02-05T00:14:17.068Z,99.99
2024-02-05T00:15:17.940Z,99.99
2024-02-05T00:16:18.856Z,99.99
2024-02-05T00:17:19.723Z,99.99
2024-02-05T00:18:20.606Z,99.99
2024-02-05T00:19:21.636Z,99.99
2024-02-05T00:20:22.091Z,99.99
2024-02-05T00:21:22.941Z,99.99
2024-02-05T00:22:23.777Z,99.99
2024-02-05T00:23:24.671Z,99.99
2024-02-05T00:24:25.493Z,99.63
2024-02-05T00:25:26.398Z,98.71
2024-02-05T00:26:27.260Z,98.91
2024-02-05T00:27:28.112Z,99.57
2024-02-05T00:28:29.026Z,99.99
2024-02-05T00:29:29.876Z,99.99
2024-02-05T00:30:30.624Z,99.99
2024-02-05T00:31:31.459Z,99.99
2024-02-05T00:32:32.382Z,99.99
2024-02-05T00:33:33.110Z,99.99
2024-02-05T00:34:33.542Z,99.99
2024-02-05T00:35:34.437Z,99.99
2024-02-05T00:36:35.254Z,99.99
2024-02-05T00:37:36.096Z,99.99
2024-02-05T00:38:36.997Z,99.99
2024-02-05T00:39:37.907Z,99.99
2024-02-05T00:40:38.759Z,99.99
2024-02-05T00:41:39.599Z,99.99
2024-02-05T00:42:40.505Z,99.99
2024-02-05T00:43:40.967Z,99.99
2024-02-05T00:44:41.824Z,99.99
2024-02-05T00:45:42.764Z,99.99
2024-02-05T00:46:43.238Z,99.99
2024-02-05T00:47:44.201Z,99.99
2024-02-05T00:48:45.224Z,99.99
2024-02-05T00:49:45.822Z,99.99
2024-02-05T00:50:46.237Z,99.99
2024-02-05T00:51:47.129Z,99.99
2024-02-05T00:52:48.017Z,99.99
2024-02-05T00:53:48.942Z,99.99
2024-02-05T00:54:49.825Z,99.99
2024-02-05T00:55:50.680Z,99.99
2024-02-05T00:56:51.513Z,99.99
2024-02-05T00:57:52.450Z,99.99
2024-02-05T00:58:52.917Z,99.99
2024-02-05T00:59:53.755Z,99.99
2024-02-05T01:00:54.685Z,99.99
2024-02-05T01:01:55.689Z,99.99
2024-02-05T01:02:56.066Z,99.99
2024-02-05T01:03:56.992Z,99.99
2024-02-05T01:04:57.558Z,99.99
2024-02-05T01:05:59.384Z,99.99
2024-02-05T01:06:58.629Z,99.99
2024-02-05T01:07:59.609Z,99.99
2024-02-05T01:09:00.579Z,99.99
2024-02-05T01:10:01.470Z,98.40
2024-02-05T01:11:02.370Z,97.79
2024-02-05T01:12:03.229Z,98.14
2024-02-05T01:13:04.149Z,98.04
2024-02-05T01:14:04.753Z,98.80
2024-02-05T01:15:05.637Z,99.52
2024-02-05T01:16:06.510Z,99.99
2024-02-05T01:17:07.434Z,99.99
2024-02-05T01:18:08.332Z,99.99
2024-02-05T01:19:09.283Z,99.99
2024-02-05T01:20:09.730Z,99.99
2024-02-05T01:21:10.576Z,99.99
2024-02-05T01:22:11.462Z,99.99
2024-02-05T01:23:13.067Z,99.99
2024-02-05T01:24:12.963Z,99.99
2024-02-05T01:25:13.875Z,99.99
2024-02-05T01:26:14.756Z,99.99
2024-02-05T01:27:15.608Z,99.99
2024-02-05T01:28:16.654Z,99.99
2024-02-05T01:29:17.072Z,99.99
2024-02-05T01:30:17.906Z,99.99
2024-02-05T01:31:18.931Z,99.99
2024-02-05T01:32:19.318Z,99.99
2024-02-05T01:33:20.229Z,99.99
2024-02-05T01:34:21.199Z,99.99
2024-02-05T01:35:22.084Z,99.99
2024-02-05T01:36:22.936Z,99.98
2024-02-05T01:37:23.823Z,99.99
2024-02-05T01:38:24.665Z,99.99
2024-02-05T01:39:25.564Z,99.77
2024-02-05T01:40:26.488Z,99.56
2024-02-05T01:41:27.326Z,99.46
2024-02-05T01:42:28.151Z,99.66
2024-02-05T01:43:28.998Z,99.41
2024-02-05T01:44:29.902Z,98.39
2024-02-05T01:45:31.606Z,97.42
2024-02-05T01:46:31.441Z,96.61
2024-02-05T01:47:32.317Z,96.30
2024-02-05T01:48:33.293Z,95.59
2024-02-05T01:49:34.002Z,95.38
2024-02-05T01:50:34.392Z,95.89
2024-02-05T01:51:35.259Z,96.04
2024-02-05T01:52:36.120Z,96.25
2024-02-05T01:53:37.000Z,96.55
2024-02-05T01:54:37.930Z,96.66
2024-02-05T01:55:38.771Z,96.96
2024-02-05T01:56:39.616Z,97.06
2024-02-05T01:57:40.563Z,97.00
2024-02-05T01:58:40.938Z,97.11
2024-02-05T01:59:41.823Z,96.91
2024-02-05T02:00:42.729Z,96.70
2024-02-05T02:01:43.660Z,96.49
2024-02-05T02:02:44.568Z,96.59
2024-02-05T02:03:45.668Z,96.29
2024-02-05T02:04:46.222Z,96.14
2024-02-05T02:05:46.682Z,96.04
2024-02-05T02:06:47.556Z,96.08
2024-02-05T02:07:48.414Z,95.63
2024-02-05T02:08:49.291Z,95.73
2024-02-05T02:09:49.920Z,95.43
2024-02-05T02:10:50.301Z,95.53
2024-02-05T02:11:51.134Z,95.32
2024-02-05T02:12:51.995Z,95.22
2024-02-05T02:13:52.867Z,95.22
2024-02-05T02:14:53.391Z,95.53
2024-02-05T02:15:54.272Z,95.12
2024-02-05T02:16:55.134Z,93.95
2024-02-05T02:17:56.018Z,93.95
2024-02-05T02:18:56.926Z,93.54
2024-02-05T02:19:57.868Z,92.58
2024-02-05T02:20:58.727Z,91.76
2024-02-05T02:21:59.637Z,91.15
2024-02-05T02:23:00.460Z,91.46
2024-02-05T02:24:01.302Z,91.56
2024-02-05T02:25:02.290Z,91.80
2024-02-05T02:26:02.678Z,92.21
2024-02-05T02:27:03.516Z,92.11
2024-02-05T02:28:04.388Z,92.52
2024-02-05T02:29:05.291Z,92.56
2024-02-05T02:30:05.145Z,93.07
2024-02-05T02:31:07.101Z,92.66
2024-02-05T02:32:07.943Z,92.77
2024-02-05T02:33:08.976Z,92.87
2024-02-05T02:34:09.538Z,93.07
2024-02-05T02:35:09.996Z,93.07
2024-02-05T02:36:10.856Z,93.07
2024-02-05T02:37:11.687Z,93.18
2024-02-05T02:38:12.514Z,92.97
2024-02-05T02:39:13.342Z,92.87
2024-02-05T02:40:14.312Z,92.97
2024-02-05T02:41:14.715Z,92.77
2024-02-05T02:42:15.560Z,92.77
2024-02-05T02:43:16.437Z,92.87
2024-02-05T02:44:17.328Z,92.87
2024-02-05T02:45:18.217Z,92.87
2024-02-05T02:46:19.091Z,93.18
2024-02-05T02:47:20.589Z,93.18
2024-02-05T02:48:20.535Z,92.87
2024-02-05T02:49:21.555Z,92.97
2024-02-05T02:50:22.030Z,92.97
2024-02-05T02:51:22.871Z,92.87
2024-02-05T02:52:23.772Z,93.28
2024-02-05T02:53:24.637Z,92.97
2024-02-05T02:54:25.456Z,91.80
2024-02-05T02:55:26.415Z,90.78
2024-02-05T02:56:27.278Z,90.68
2024-02-05T02:57:28.167Z,90.99
2024-02-05T02:58:28.999Z,90.68
2024-02-05T02:59:29.880Z,90.53
2024-02-05T03:00:30.743Z,90.12
2024-02-05T03:01:31.929Z,90.47
2024-02-05T03:02:32.420Z,90.58
2024-02-05T03:03:33.276Z,90.99
2024-02-05T03:04:34.189Z,90.99
2024-02-05T03:05:35.068Z,91.33
2024-02-05T03:06:35.952Z,91.13
2024-02-05T03:07:36.899Z,91.03
2024-02-05T03:08:37.431Z,91.23
2024-02-05T03:09:38.333Z,91.54
2024-02-05T03:10:39.279Z,91.23
2024-02-05T03:11:40.100Z,91.33
2024-02-05T03:12:41.067Z,91.64
2024-02-05T03:13:41.417Z,91.54
2024-02-05T03:14:42.268Z,91.44
2024-02-05T03:15:43.132Z,91.44
2024-02-05T03:16:43.969Z,91.03
2024-02-05T03:17:44.844Z,91.33
2024-02-05T03:18:45.821Z,91.54
2024-02-05T03:19:46.367Z,91.54
2024-02-05T03:20:46.815Z,91.54
2024-02-05T03:21:47.679Z,91.85
2024-02-05T03:22:58.398Z,91.64
2024-02-05T03:23:49.308Z,91.85
2024-02-05T03:24:50.214Z,91.74
2024-02-05T03:25:51.136Z,92.05
2024-02-05T03:26:51.985Z,92.25
2024-02-05T03:27:52.882Z,91.54
2024-02-05T03:28:53.717Z,91.29
2024-02-05T03:29:54.554Z,89.97
2024-02-05T03:30:55.605Z,90.12
2024-02-05T03:31:56.184Z,89.47
2024-02-05T03:32:56.641Z,87.84
2024-02-05T03:33:57.572Z,87.43
2024-02-05T03:34:58.573Z,87.53
2024-02-05T03:35:59.006Z,87.98
2024-02-05T03:36:59.919Z,88.59
2024-02-05T03:38:00.300Z,88.94
2024-02-05T03:39:01.142Z,89.45
2024-02-05T03:40:02.318Z,89.65
2024-02-05T03:41:02.768Z,90.00
2024-02-05T03:42:03.626Z,90.21
2024-02-05T03:43:04.466Z,90.31
2024-02-05T03:44:05.398Z,90.00
2024-02-05T03:45:06.256Z,90.11
2024-02-05T03:46:07.408Z,90.11
2024-02-05T03:47:07.778Z,90.21
2024-02-05T03:48:08.812Z,90.21
2024-02-05T03:49:10.247Z,90.52
2024-02-05T03:50:10.254Z,90.72
2024-02-05T03:51:10.690Z,90.72
2024-02-05T03:52:11.572Z,90.82
2024-02-05T03:53:12.466Z,90.82
2024-02-05T03:54:13.309Z,90.72
2024-02-05T03:55:14.348Z,90.41
2024-02-05T03:56:14.879Z,90.52
2024-02-05T03:57:15.718Z,90.52
2024-02-05T03:58:16.672Z,90.41
2024-02-05T03:59:17.532Z,90.52
2024-02-05T04:00:18.370Z,90.72
2024-02-05T04:01:19.442Z,91.17
2024-02-05T04:02:19.792Z,91.07
2024-02-05T04:03:20.679Z,90.82
2024-02-05T04:04:21.595Z,90.00
2024-02-05T04:05:22.471Z,89.35
2024-02-05T04:06:23.126Z,88.94
2024-02-05T04:07:24.192Z,88.84
2024-02-05T04:08:24.586Z,88.39
2024-02-05T04:09:25.414Z,87.32
2024-02-05T04:10:26.094Z,86.61
2024-02-05T04:11:27.084Z,86.91
2024-02-05T04:12:27.908Z,87.37
2024-02-05T04:13:29.787Z,87.92
2024-02-05T04:14:30.627Z,88.43
2024-02-05T04:15:31.500Z,88.64
2024-02-05T04:16:31.389Z,88.98
2024-02-05T04:17:32.282Z,89.18
2024-02-05T04:18:33.147Z,89.50
2024-02-05T04:19:34.059Z,89.70
2024-02-05T04:20:34.919Z,90.00
2024-02-05T04:21:35.805Z,90.41
2024-02-05T04:22:36.640Z,90.31
2024-02-05T04:23:37.661Z,90.36
2024-02-05T04:24:38.065Z,90.45
2024-02-05T04:25:38.898Z,90.66
2024-02-05T04:26:39.813Z,90.66
2024-02-05T04:27:40.704Z,90.97
2024-02-05T04:28:41.565Z,90.97
2024-02-05T04:29:42.463Z,91.07
2024-02-05T04:30:43.669Z,90.97
2024-02-05T04:31:43.590Z,90.86
2024-02-05T04:32:44.459Z,91.07
2024-02-05T04:33:45.485Z,90.86
2024-02-05T04:34:45.920Z,90.97
2024-02-05T04:35:46.812Z,90.86
2024-02-05T04:36:47.754Z,91.27
2024-02-05T04:37:48.596Z,90.77
2024-02-05T04:38:49.434Z,90.00
2024-02-05T04:39:50.318Z,89.50
2024-02-05T04:40:51.207Z,89.09
2024-02-05T04:41:52.123Z,89.29
2024-02-05T04:42:52.971Z,89.09
2024-02-05T04:43:53.885Z,88.78
2024-02-05T04:44:54.729Z,88.88
2024-02-05T04:45:55.632Z,89.18
2024-02-05T04:46:56.504Z,89.53
2024-02-05T04:47:57.338Z,89.84
2024-02-05T04:48:58.511Z,90.15
2024-02-05T04:49:58.994Z,90.36
2024-02-05T04:50:59.383Z,90.66
2024-02-05T04:52:00.265Z,90.77
2024-02-05T04:53:01.151Z,90.70
2024-02-05T04:54:01.988Z,90.81
2024-02-05T04:55:02.974Z,90.81
2024-02-05T04:56:03.413Z,91.01
2024-02-05T04:57:04.347Z,90.91
2024-02-05T04:58:05.217Z,90.81
2024-02-05T04:59:06.137Z,90.81
2024-02-05T05:00:06.729Z,90.81
2024-02-05T05:01:11.465Z,91.11
2024-02-05T05:02:08.534Z,91.01
2024-02-05T05:03:08.969Z,90.91
2024-02-05T05:04:09.820Z,90.91
2024-02-05T05:05:10.692Z,91.11
2024-02-05T05:06:11.612Z,91.31
2024-02-05T05:07:12.717Z,91.42
2024-02-05T05:08:13.237Z,91.31
2024-02-05T05:09:14.109Z,91.11
2024-02-05T05:10:15.000Z,91.11
2024-02-05T05:11:15.878Z,91.01
2024-02-05T05:12:16.813Z,90.81
2024-02-05T05:13:17.696Z,90.91
2024-02-05T05:14:18.610Z,91.01
2024-02-05T05:15:19.448Z,91.42
2024-02-05T05:16:20.447Z,91.22
2024-02-05T05:17:20.899Z,91.11
2024-02-05T05:18:21.872Z,91.31
2024-02-05T05:19:22.496Z,91.05
2024-02-05T05:20:22.912Z,91.05
2024-02-05T05:21:27.107Z,91.16
2024-02-05T05:22:24.664Z,90.81
2024-02-05T05:23:25.517Z,90.60
2024-02-05T05:24:26.346Z,91.07
2024-02-05T05:25:27.226Z,89.50
2024-02-05T05:26:28.081Z,87.85
2024-02-05T05:27:28.988Z,87.51
2024-02-05T05:28:29.829Z,87.41
2024-02-05T05:29:30.720Z,87.20
2024-02-05T05:30:31.559Z,87.20
2024-02-05T05:31:32.502Z,87.24
2024-02-05T05:32:33.448Z,87.55
2024-02-05T05:33:34.316Z,88.10
2024-02-05T05:34:35.234Z,88.71
2024-02-05T05:35:36.102Z,88.92
2024-02-05T05:36:36.954Z,89.27
2024-02-05T05:37:38.012Z,89.58
2024-02-05T05:38:38.390Z,89.68
2024-02-05T05:39:39.272Z,89.78
2024-02-05T05:40:40.120Z,89.78
2024-02-05T05:41:40.997Z,89.92
2024-02-05T05:42:41.965Z,90.19
2024-02-05T05:43:42.452Z,89.92
2024-02-05T05:44:43.293Z,89.92
2024-02-05T05:45:44.185Z,90.09
2024-02-05T05:46:44.927Z,89.98
2024-02-05T05:47:45.803Z,90.03
2024-02-05T05:48:46.796Z,90.03
2024-02-05T05:49:47.407Z,90.03
2024-02-05T05:50:47.815Z,90.03
2024-02-05T05:51:48.705Z,90.03
2024-02-05T05:52:49.567Z,89.78
2024-02-05T05:53:50.438Z,88.96
2024-02-05T05:54:51.324Z,88.41
2024-02-05T05:55:52.220Z,88.00
2024-02-05T05:56:53.100Z,87.70
2024-02-05T05:57:54.047Z,87.76
2024-02-05T05:58:54.925Z,87.24
2024-02-05T05:59:55.745Z,86.69
2024-02-05T06:00:56.830Z,85.67
2024-02-05T06:01:57.297Z,85.26
2024-02-05T06:02:58.288Z,85.57
2024-02-05T06:03:59.190Z,86.32
2024-02-05T06:05:00.140Z,86.32
2024-02-05T06:06:01.080Z,86.98
2024-02-05T06:07:01.990Z,87.29
2024-02-05T06:08:02.891Z,87.73
2024-02-05T06:09:03.736Z,88.45
2024-02-05T06:10:04.597Z,88.45
2024-02-05T06:11:05.446Z,88.65
2024-02-05T06:12:06.281Z,88.86
2024-02-05T06:13:07.300Z,89.17
2024-02-05T06:14:07.844Z,89.06
2024-02-05T06:15:08.279Z,89.21
2024-02-05T06:16:09.147Z,89.00
2024-02-05T06:17:10.674Z,89.31
2024-02-05T06:18:11.054Z,89.31
2024-02-05T06:19:12.065Z,89.21
2024-02-05T06:20:15.434Z,89.42
2024-02-05T06:21:13.189Z,89.58
2024-02-05T06:22:14.059Z,88.86
2024-02-05T06:23:14.931Z,88.35
2024-02-05T06:24:15.774Z,88.24
2024-02-05T06:25:16.675Z,88.24
2024-02-05T06:26:17.544Z,87.90
2024-02-05T06:27:18.380Z,87.55
2024-02-05T06:28:19.338Z,86.69
2024-02-05T06:29:20.208Z,84.85
2024-02-05T06:30:21.039Z,85.42
2024-02-05T06:31:22.012Z,84.00
2024-02-05T06:32:22.873Z,83.75
2024-02-05T06:33:23.799Z,83.54
2024-02-05T06:34:24.755Z,84.50
2024-02-05T06:35:25.174Z,83.69
2024-02-05T06:36:26.014Z,84.44
2024-02-05T06:37:26.931Z,84.89
2024-02-05T06:38:27.811Z,85.10
2024-02-05T06:39:28.680Z,86.16
2024-02-05T06:40:29.707Z,86.46
2024-02-05T06:41:30.144Z,87.02
2024-02-05T06:42:30.994Z,87.63
2024-02-05T06:43:31.974Z,87.73
2024-02-05T06:44:32.336Z,88.14
2024-02-05T06:45:33.192Z,88.18
2024-02-05T06:46:34.045Z,88.29
2024-02-05T06:47:34.888Z,88.39
2024-02-05T06:48:35.975Z,88.59
2024-02-05T06:49:36.449Z,88.49
2024-02-05T06:50:37.378Z,88.49
2024-02-05T06:51:38.229Z,87.98
2024-02-05T06:52:39.056Z,87.84
2024-02-05T06:53:39.898Z,87.22
2024-02-05T06:54:40.543Z,87.12
2024-02-05T06:55:41.761Z,86.26
2024-02-05T06:56:42.278Z,85.75
2024-02-05T06:57:43.163Z,85.40
2024-02-05T06:58:44.117Z,85.44
2024-02-05T06:59:44.980Z,85.30
2024-02-05T07:00:45.980Z,85.03
2024-02-05T07:01:46.996Z,85.44
2024-02-05T07:02:47.383Z,84.79
2024-02-05T07:03:48.291Z,85.44
2024-02-05T07:04:49.411Z,84.99
2024-02-05T07:05:49.636Z,84.48
2024-02-05T07:06:50.565Z,84.48
2024-02-05T07:07:51.543Z,84.99
2024-02-05T07:08:52.017Z,84.48
2024-02-05T07:09:52.966Z,84.38
2024-02-05T07:10:53.844Z,83.73
2024-02-05T07:11:54.745Z,83.01
2024-02-05T07:12:55.685Z,82.67
2024-02-05T07:13:56.994Z,82.46
2024-02-05T07:14:57.388Z,82.20
2024-02-05T07:16:00.275Z,82.46
2024-02-05T07:17:03.203Z,82.26
2024-02-05T07:17:59.752Z,82.05
2024-02-05T07:19:00.411Z,82.29
2024-02-05T07:20:01.066Z,83.32
2024-02-05T07:21:01.463Z,82.05
2024-02-05T07:22:02.466Z,81.74
2024-02-05T07:23:02.862Z,82.15
2024-02-05T07:24:03.760Z,82.26
2024-02-05T07:25:04.637Z,81.03
2024-02-05T07:26:05.576Z,82.15
2024-02-05T07:27:06.417Z,81.54
2024-02-05T07:28:07.365Z,81.24
2024-02-05T07:29:07.973Z,81.68
2024-02-05T07:30:08.817Z,82.40
2024-02-05T07:31:09.719Z,82.91
2024-02-05T07:32:10.603Z,83.22
2024-02-05T07:33:11.497Z,82.03
2024-02-05T07:34:12.575Z,82.43
2024-02-05T07:35:13.018Z,82.64
2024-02-05T07:36:13.946Z,82.68
2024-02-05T07:37:14.875Z,82.84
2024-02-05T07:38:15.861Z,81.68
2024-02-05T07:39:16.813Z,81.79
2024-02-05T07:40:17.812Z,81.03
2024-02-05T07:41:18.713Z,80.69
2024-02-05T07:42:19.588Z,79.87
2024-02-05T07:43:20.638Z,79.57
2024-02-05T07:44:21.197Z,79.25
2024-02-05T07:45:22.099Z,79.77
2024-02-05T07:46:23.078Z,79.52
2024-02-05T07:47:23.480Z,78.85
2024-02-05T07:48:25.310Z,79.29
2024-02-05T07:49:25.245Z,80.46
2024-02-05T07:50:26.154Z,80.87
2024-02-05T07:51:27.104Z,81.10
2024-02-05T07:52:27.995Z,81.62
2024-02-05T07:53:28.870Z,81.21
2024-02-05T07:54:30.715Z,82.03
2024-02-05T07:55:30.685Z,82.37
2024-02-05T07:56:31.645Z,82.57
2024-02-05T07:57:32.495Z,83.33
2024-02-05T07:58:33.331Z,83.33
2024-02-05T07:59:34.302Z,84.05
2024-02-05T08:00:35.184Z,84.01
2024-02-05T08:01:36.106Z,82.78
2024-02-05T08:02:37.004Z,82.48
2024-02-05T08:03:37.935Z,82.57
2024-02-05T08:04:38.693Z,82.37
2024-02-05T08:05:39.095Z,82.27
2024-02-05T08:06:40.780Z,82.57
2024-02-05T08:07:40.927Z,83.29
2024-02-05T08:08:41.526Z,82.84
2024-02-05T08:09:42.562Z,82.03
2024-02-05T08:10:42.978Z,81.72
2024-02-05T08:11:43.891Z,81.72
2024-02-05T08:12:44.876Z,81.10
2024-02-05T08:13:45.760Z,81.48
2024-02-05T08:14:46.937Z,81.07
2024-02-05T08:15:47.297Z,80.15
2024-02-05T08:16:48.224Z,80.35
2024-02-05T08:17:49.145Z,80.80
2024-02-05T08:18:50.094Z,81.21
2024-02-05T08:19:50.647Z,81.10
2024-02-05T08:20:51.088Z,81.72
2024-02-05T08:21:51.998Z,81.51
2024-02-05T08:22:52.827Z,81.31
2024-02-05T08:23:53.730Z,81.51
2024-02-05T08:24:54.707Z,81.31
2024-02-05T08:25:55.571Z,82.29
2024-02-05T08:26:56.425Z,80.35
2024-02-05T08:27:57.383Z,80.35
2024-02-05T08:28:57.888Z,80.69
2024-02-05T08:29:58.788Z,81.01
2024-02-05T08:30:59.686Z,81.10
2024-02-05T08:32:00.633Z,81.41
2024-02-05T08:33:01.588Z,80.76
2024-02-05T08:34:02.575Z,80.80
2024-02-05T08:35:03.238Z,81.17
2024-02-05T08:36:03.621Z,80.60
2024-02-05T08:37:04.553Z,80.69
2024-02-05T08:38:05.443Z,81.51
2024-02-05T08:39:06.264Z,80.56
2024-02-05T08:40:07.147Z,80.56
2024-02-05T08:41:08.081Z,79.94
2024-02-05T08:42:16.528Z,80.76
2024-02-05T08:43:09.826Z,80.46
2024-02-05T08:44:10.180Z,80.69
2024-02-05T08:45:11.095Z,80.35
2024-02-05T08:46:12.030Z,79.94
2024-02-05T08:47:12.939Z,79.94
2024-02-05T08:48:13.888Z,80.60
2024-02-05T08:49:19.107Z,80.76
2024-02-05T08:50:17.851Z,79.77
2024-02-05T08:51:16.440Z,77.93
2024-02-05T08:52:17.476Z,78.38
2024-02-05T08:53:18.485Z,78.78
2024-02-05T08:54:18.515Z,79.64
2024-02-05T08:55:19.952Z,79.23
2024-02-05T08:56:20.413Z,79.64
2024-02-05T08:57:21.770Z,79.64
2024-02-05T08:58:23.566Z,78.78
2024-02-05T08:59:22.053Z,79.09
2024-02-05T09:00:23.328Z,78.68
2024-02-05T09:01:26.669Z,78.38
2024-02-05T09:02:26.840Z,78.82
2024-02-05T09:03:27.299Z,79.53
2024-02-05T09:04:26.449Z,79.43
2024-02-05T09:05:33.714Z,79.64
2024-02-05T09:06:27.325Z,79.84
2024-02-05T09:07:28.108Z,79.74
2024-02-05T09:08:31.442Z,79.64
2024-02-05T09:09:30.891Z,79.78
2024-02-05T09:10:35.354Z,80.08
2024-02-05T09:11:31.551Z,80.83
2024-02-05T09:12:32.118Z,81.31
2024-02-05T09:13:32.627Z,79.91
2024-02-05T09:14:33.036Z,78.78
2024-02-05T09:15:34.336Z,77.69
2024-02-05T09:16:34.668Z,77.62
2024-02-05T09:17:35.620Z,77.22
2024-02-05T09:18:36.777Z,77.86
2024-02-05T09:19:36.834Z,78.78
2024-02-05T09:20:37.371Z,79.53
2024-02-05T09:21:38.245Z,78.88
2024-02-05T09:22:39.179Z,78.72
2024-02-05T09:23:40.136Z,79.23
2024-02-05T09:24:41.246Z,79.09
2024-02-05T09:25:41.674Z,78.99
2024-02-05T09:26:42.794Z,78.17
2024-02-05T09:27:43.252Z,78.07
2024-02-05T09:28:43.770Z,78.17
2024-02-05T09:29:47.341Z,78.52
2024-02-05T09:31:45.101Z,78.92
2024-02-05T09:32:46.630Z,78.61
2024-02-05T09:33:47.499Z,78.82
2024-02-05T09:34:49.015Z,79.68
2024-02-05T09:35:48.585Z,79.64
2024-02-05T09:36:49.535Z,79.64
2024-02-05T09:37:57.604Z,78.92
2024-02-05T09:38:52.116Z,79.02
2024-02-05T09:39:51.657Z,79.84
2024-02-05T09:40:53.257Z,79.16
2024-02-05T09:41:53.158Z,79.98
2024-02-05T09:42:54.101Z,80.19
2024-02-05T09:43:55.170Z,80.39
2024-02-05T09:44:55.558Z,80.39
2024-02-05T09:45:57.606Z,80.33
2024-02-05T09:46:57.040Z,80.90
2024-02-05T09:47:57.923Z,80.43
2024-02-05T09:48:59.042Z,80.83
2024-02-05T09:49:59.620Z,80.94
2024-02-05T09:51:00.364Z,81.38
2024-02-05T09:52:00.835Z,82.10
2024-02-05T09:53:01.238Z,81.90
2024-02-05T09:54:10.539Z,82.51
2024-02-05T09:55:03.073Z,82.31
2024-02-05T09:56:04.964Z,82.10
2024-02-05T09:57:04.284Z,82.51
2024-02-05T09:58:05.233Z,82.10
2024-02-05T09:59:08.268Z,82.35
2024-02-05T10:00:06.229Z,82.41
2024-02-05T10:01:07.323Z,82.51
2024-02-05T10:02:07.881Z,82.07
2024-02-05T10:03:08.408Z,80.46
2024-02-05T10:04:10.524Z,78.78
2024-02-05T10:05:10.421Z,78.48
2024-02-05T10:06:10.662Z,77.97
2024-02-05T10:07:12.045Z,78.48
2024-02-05T10:08:12.589Z,78.52
2024-02-05T10:09:12.993Z,78.72
2024-02-05T10:10:14.001Z,79.27
2024-02-05T10:11:14.680Z,79.78
2024-02-05T10:12:15.100Z,80.29
2024-02-05T10:13:16.092Z,80.74
2024-02-05T10:14:16.515Z,80.94
2024-02-05T10:15:18.344Z,81.65
2024-02-05T10:16:18.565Z,81.70
2024-02-05T10:17:19.002Z,81.38
2024-02-05T10:18:19.942Z,81.59
2024-02-05T10:19:20.943Z,81.90
2024-02-05T10:20:22.040Z,82.00
2024-02-05T10:21:22.685Z,82.62
2024-02-05T10:22:23.592Z,82.62
2024-02-05T10:23:27.458Z,82.51
2024-02-05T10:24:24.800Z,82.10
2024-02-05T10:25:25.933Z,82.21
2024-02-05T10:26:27.234Z,81.90
2024-02-05T10:27:27.223Z,82.27
2024-02-05T10:28:28.318Z,80.83
2024-02-05T10:29:28.722Z,80.22
2024-02-05T10:30:29.641Z,80.49
2024-02-05T10:31:30.679Z,80.90
2024-02-05T10:32:31.099Z,79.78
2024-02-05T10:33:32.159Z,79.78
2024-02-05T10:34:32.890Z,80.25
2024-02-05T10:35:33.370Z,79.09
2024-02-05T10:36:34.472Z,79.29
2024-02-05T10:37:34.965Z,78.11
2024-02-05T10:38:36.295Z,79.23
2024-02-05T10:39:36.312Z,79.02
2024-02-05T10:40:40.297Z,78.92
2024-02-05T10:41:40.413Z,79.02
2024-02-05T10:42:38.537Z,79.06
2024-02-05T10:43:39.799Z,78.92
2024-02-05T10:44:41.987Z,79.13
2024-02-05T10:45:40.559Z,78.72
2024-02-05T10:46:41.033Z,78.96
2024-02-05T10:47:42.107Z,79.27
2024-02-05T10:48:43.954Z,79.78
2024-02-05T10:49:46.455Z,80.33
2024-02-05T10:50:44.525Z,80.33
2024-02-05T10:51:44.918Z,80.12
2024-02-05T10:52:45.856Z,80.94
2024-02-05T10:53:47.720Z,80.94
2024-02-05T10:54:48.513Z,80.63
2024-02-05T10:55:49.248Z,80.53
2024-02-05T10:56:50.881Z,80.63
2024-02-05T10:57:49.940Z,80.83
2024-02-05T10:58:50.852Z,80.63
2024-02-05T10:59:50.731Z,80.83
2024-02-05T11:00:52.231Z,81.15
2024-02-05T11:01:53.205Z,81.56
2024-02-05T11:02:53.652Z,81.45
2024-02-05T11:03:55.458Z,81.45
2024-02-05T11:04:55.707Z,81.35
2024-02-05T11:05:56.209Z,81.76
2024-02-05T11:06:57.227Z,82.37
2024-02-05T11:07:57.851Z,81.04
2024-02-05T11:08:58.239Z,81.82
2024-02-05T11:09:59.211Z,80.90
2024-02-05T11:11:01.207Z,81.27
2024-02-05T11:12:00.687Z,79.87
2024-02-05T11:13:01.651Z,78.44
2024-02-05T11:14:02.536Z,77.18
2024-02-05T11:15:03.741Z,76.46
2024-02-05T11:16:04.346Z,76.60
2024-02-05T11:17:04.938Z,77.45
2024-02-05T11:18:05.951Z,78.07
2024-02-05T11:19:06.591Z,78.61
2024-02-05T11:20:07.140Z,79.33
2024-02-05T11:21:07.559Z,79.53
2024-02-05T11:22:08.519Z,79.43
2024-02-05T11:23:09.596Z,79.33
2024-02-05T11:24:10.102Z,79.68
2024-02-05T11:25:10.523Z,79.98
2024-02-05T11:26:11.579Z,81.21
2024-02-05T11:27:11.967Z,80.66
2024-02-05T11:28:12.908Z,81.03
2024-02-05T11:29:14.269Z,79.02
2024-02-05T11:30:14.134Z,76.56
2024-02-05T11:31:15.841Z,76.19
2024-02-05T11:32:15.719Z,77.93
2024-02-05T11:33:16.871Z,77.22
2024-02-05T11:34:17.395Z,76.81
2024-02-05T11:35:17.931Z,77.34
2024-02-05T11:36:18.407Z,74.25
2024-02-05T11:37:19.466Z,74.38
2024-02-05T11:38:19.958Z,74.90
2024-02-05T11:39:20.878Z,75.04
2024-02-05T11:40:21.885Z,75.89
2024-02-05T11:41:22.613Z,76.46
2024-02-05T11:42:23.094Z,75.48
2024-02-05T11:43:23.781Z,75.58
2024-02-05T11:44:24.186Z,76.29
2024-02-05T11:45:25.081Z,75.99
2024-02-05T11:46:26.000Z,76.50
2024-02-05T11:47:26.896Z,76.90
2024-02-05T11:48:28.450Z,77.31
2024-02-05T11:49:28.439Z,76.94
2024-02-05T11:50:29.000Z,77.15
2024-02-05T11:51:32.469Z,77.35
2024-02-05T11:52:30.777Z,77.15
2024-02-05T11:53:31.410Z,77.01
2024-02-05T11:54:31.767Z,75.99
2024-02-05T11:55:32.760Z,75.58
2024-02-05T11:56:33.288Z,76.09
2024-02-05T11:57:34.178Z,75.07
2024-02-05T11:58:35.190Z,75.37
2024-02-05T11:59:35.648Z,75.92
2024-02-05T12:00:36.713Z,76.37
2024-02-05T12:01:37.159Z,77.39
2024-02-05T12:02:39.757Z,77.32
2024-02-05T12:03:38.468Z,77.83
2024-02-05T12:04:38.975Z,77.94
2024-02-05T12:05:40.269Z,77.63
2024-02-05T12:06:40.194Z,77.73
2024-02-05T12:07:41.163Z,77.53
2024-02-05T12:08:41.727Z,77.83
2024-02-05T12:09:42.218Z,78.04
2024-02-05T12:10:42.609Z,78.14
2024-02-05T12:11:43.494Z,78.55
2024-02-05T12:12:45.286Z,78.96
2024-02-05T12:13:45.210Z,79.27
2024-02-05T12:14:45.684Z,79.98
2024-02-05T12:15:46.575Z,79.16
2024-02-05T12:16:47.616Z,79.53
2024-02-05T12:17:48.077Z,79.64
2024-02-05T12:18:53.449Z,78.58
2024-02-05T12:19:49.646Z,78.20
2024-02-05T12:20:50.169Z,75.00
2024-02-05T12:21:50.671Z,73.94
2024-02-05T12:22:51.589Z,73.43
2024-02-05T12:23:52.548Z,74.59
2024-02-05T12:24:52.398Z,73.88
2024-02-05T12:25:53.798Z,74.38
2024-02-05T12:26:54.721Z,74.08
2024-02-05T12:27:55.697Z,74.73
2024-02-05T12:28:56.306Z,75.24
2024-02-05T12:29:56.712Z,75.85
2024-02-05T12:30:57.702Z,74.01
2024-02-05T12:31:58.348Z,74.49
2024-02-05T12:33:20.131Z,73.47
2024-02-05T12:33:59.955Z,73.64
2024-02-05T12:35:00.560Z,72.62
2024-02-05T12:36:01.850Z,72.96
2024-02-05T12:37:01.778Z,73.98
2024-02-05T12:38:02.180Z,73.77
2024-02-05T12:39:03.791Z,74.11
2024-02-05T12:40:03.859Z,75.24
2024-02-05T12:41:04.273Z,74.52
2024-02-05T12:42:05.200Z,75.13
2024-02-05T12:43:06.930Z,73.98
2024-02-05T12:44:06.976Z,74.79
2024-02-05T12:45:14.701Z,74.05
2024-02-05T12:46:08.631Z,73.43
2024-02-05T12:47:09.524Z,73.74
2024-02-05T12:48:10.436Z,73.13
2024-02-05T12:49:11.414Z,73.67
2024-02-05T12:50:12.019Z,74.83
2024-02-05T12:51:12.456Z,75.13
2024-02-05T12:52:13.336Z,74.08
2024-02-05T12:53:14.240Z,74.01
2024-02-05T12:54:15.120Z,74.87
2024-02-05T12:55:16.012Z,75.58
2024-02-05T12:56:16.947Z,76.43
2024-02-05T12:57:17.792Z,76.78
2024-02-05T12:58:18.756Z,76.88
2024-02-05T12:59:19.697Z,77.39
2024-02-05T13:00:20.556Z,78.00
2024-02-05T13:01:21.661Z,78.00
2024-02-05T13:02:22.226Z,77.70
2024-02-05T13:03:22.669Z,77.94